Terminal Aerodrome Forecast
Issued by NWS

Home | Current Version | Previous Version | Text Only | Print | Product List | Glossary On
Versions: 1 2 3 4 5 6 7 8 9 10 11 12 13 14 15 16 17 18 19 20
000
FTUS41 KPBZ 292335
TAFLBE
TAF
KLBE 292335Z 3000/3024 18004KT P6SM BKN080
     FM300500 18003KT 5SM BR BKN150
     FM300700 VRB03KT 2SM BR SCT008 SCT150
      TEMPO 3008/3011 3/4SM BR VV002
     FM301400 24005KT P6SM SCT040=

USA.gov is the U.S. government's official web portal to all federal, state and local government web resources and services.